sensor_id;sensor_type;location;lat;lon;timestamp;pressure;altitude;pressure_sealevel;temperature;humidity
63395;BME280;49531;-34.520;150.798;2022-12-24T00:02:25;100040.28;;;24.94;59.74
63395;BME280;49531;-34.520;150.798;2022-12-24T00:04:52;100042.94;;;24.99;59.66
63395;BME280;49531;-34.520;150.798;2022-12-24T00:07:19;100041.22;;;25.03;59.27
63395;BME280;49531;-34.520;150.798;2022-12-24T00:09:46;100049.28;;;25.08;59.08
63395;BME280;49531;-34.520;150.798;2022-12-24T00:12:14;100051.13;;;25.13;59.01
63395;BME280;49531;-34.520;150.798;2022-12-24T00:14:41;100043.91;;;25.17;58.97
63395;BME280;49531;-34.520;150.798;2022-12-24T00:17:08;100041.84;;;25.22;58.56
63395;BME280;49531;-34.520;150.798;2022-12-24T00:19:35;100044.47;;;25.27;58.25
63395;BME280;49531;-34.520;150.798;2022-12-24T00:22:02;100038.38;;;25.31;58.19
63395;BME280;49531;-34.520;150.798;2022-12-24T00:24:29;100037.97;;;25.37;58.21
63395;BME280;49531;-34.520;150.798;2022-12-24T00:26:56;100037.03;;;25.42;58.35
63395;BME280;49531;-34.520;150.798;2022-12-24T00:29:24;100045.13;;;25.47;58.59
63395;BME280;49531;-34.520;150.798;2022-12-24T00:31:51;100039.72;;;25.55;58.21
63395;BME280;49531;-34.520;150.798;2022-12-24T00:34:18;100034.44;;;25.59;57.96
63395;BME280;49531;-34.520;150.798;2022-12-24T00:36:45;100032.97;;;25.62;57.57
63395;BME280;49531;-34.520;150.798;2022-12-24T00:39:12;100030.78;;;25.64;56.98
63395;BME280;49531;-34.520;150.798;2022-12-24T00:41:39;100034.50;;;25.68;57.21
63395;BME280;49531;-34.520;150.798;2022-12-24T00:44:07;100032.75;;;25.72;56.94
63395;BME280;49531;-34.520;150.798;2022-12-24T00:46:37;100038.09;;;25.77;56.97
63395;BME280;49531;-34.520;150.798;2022-12-24T00:49:06;100034.75;;;25.80;56.46
63395;BME280;49531;-34.520;150.798;2022-12-24T00:51:35;100046.38;;;25.85;56.41
63395;BME280;49531;-34.520;150.798;2022-12-24T00:54:02;100039.97;;;25.90;55.97
63395;BME280;49531;-34.520;150.798;2022-12-24T00:56:29;100032.75;;;25.94;55.46
63395;BME280;49531;-34.520;150.798;2022-12-24T00:58:56;100027.94;;;26.00;55.21
63395;BME280;49531;-34.520;150.798;2022-12-24T01:01:24;100021.81;;;26.03;55.27
63395;BME280;49531;-34.520;150.798;2022-12-24T01:03:52;100033.28;;;26.05;54.84
63395;BME280;49531;-34.520;150.798;2022-12-24T01:06:39;100023.81;;;26.11;53.93
63395;BME280;49531;-34.520;150.798;2022-12-24T01:09:07;100026.72;;;26.14;53.47
63395;BME280;49531;-34.520;150.798;2022-12-24T01:11:34;100020.63;;;26.17;53.18
63395;BME280;49531;-34.520;150.798;2022-12-24T01:14:01;100020.00;;;26.20;53.36
63395;BME280;49531;-34.520;150.798;2022-12-24T01:16:28;100014.69;;;26.24;53.16
63395;BME280;49531;-34.520;150.798;2022-12-24T01:18:56;100024.38;;;26.30;53.02
63395;BME280;49531;-34.520;150.798;2022-12-24T01:21:23;100017.19;;;26.34;52.98
63395;BME280;49531;-34.520;150.798;2022-12-24T01:23:52;100010.28;;;26.37;52.29
63395;BME280;49531;-34.520;150.798;2022-12-24T01:26:19;100011.88;;;26.38;51.08
63395;BME280;49531;-34.520;150.798;2022-12-24T01:28:46;100004.94;;;26.40;51.08
63395;BME280;49531;-34.520;150.798;2022-12-24T01:31:15;100002.69;;;26.42;51.30
63395;BME280;49531;-34.520;150.798;2022-12-24T01:33:44;100000.94;;;26.46;51.20
63395;BME280;49531;-34.520;150.798;2022-12-24T01:36:12;99998.38;;;26.50;50.92
63395;BME280;49531;-34.520;150.798;2022-12-24T01:38:40;100002.41;;;26.52;51.06
63395;BME280;49531;-34.520;150.798;2022-12-24T01:41:15;99993.25;;;26.57;51.16
63395;BME280;49531;-34.520;150.798;2022-12-24T01:43:54;99998.56;;;26.62;51.45
63395;BME280;49531;-34.520;150.798;2022-12-24T01:46:28;99997.13;;;26.65;51.34
63395;BME280;49531;-34.520;150.798;2022-12-24T01:49:01;99998.41;;;26.67;51.32
63395;BME280;49531;-34.520;150.798;2022-12-24T01:51:34;99988.94;;;26.73;51.72
63395;BME280;49531;-34.520;150.798;2022-12-24T01:54:10;99989.59;;;26.79;51.90
63395;BME280;49531;-34.520;150.798;2022-12-24T01:56:44;99989.09;;;26.85;51.73
63395;BME280;49531;-34.520;150.798;2022-12-24T01:59:14;99987.63;;;26.88;51.76
63395;BME280;49531;-34.520;150.798;2022-12-24T02:01:42;99983.94;;;26.92;51.42
63395;BME280;49531;-34.520;150.798;2022-12-24T02:06:58;99979.63;;;27.00;51.49
63395;BME280;49531;-34.520;150.798;2022-12-24T02:09:26;99970.28;;;27.01;50.76
63395;BME280;49531;-34.520;150.798;2022-12-24T02:11:54;99969.63;;;27.04;51.35
63395;BME280;49531;-34.520;150.798;2022-12-24T02:14:22;99976.06;;;27.08;51.47
63395;BME280;49531;-34.520;150.798;2022-12-24T02:17:15;99971.56;;;27.12;50.82
63395;BME280;49531;-34.520;150.798;2022-12-24T02:23:06;99981.25;;;27.18;51.46
63395;BME280;49531;-34.520;150.798;2022-12-24T02:26:17;99978.97;;;27.20;51.38
63395;BME280;49531;-34.520;150.798;2022-12-24T02:31:44;99962.66;;;27.24;51.20
63395;BME280;49531;-34.520;150.798;2022-12-24T02:34:27;99966.38;;;27.28;51.15
63395;BME280;49531;-34.520;150.798;2022-12-24T02:37:06;99955.88;;;27.30;50.76
63395;BME280;49531;-34.520;150.798;2022-12-24T02:39:45;99953.63;;;27.32;51.00
63395;BME280;49531;-34.520;150.798;2022-12-24T02:42:18;99961.53;;;27.34;50.73
63395;BME280;49531;-34.520;150.798;2022-12-24T02:44:54;99965.88;;;27.35;50.67
63395;BME280;49531;-34.520;150.798;2022-12-24T02:47:24;99971.22;;;27.40;50.63
63395;BME280;49531;-34.520;150.798;2022-12-24T02:49:52;99964.25;;;27.42;50.23
63395;BME280;49531;-34.520;150.798;2022-12-24T02:52:31;99964.75;;;27.44;50.20
63395;BME280;49531;-34.520;150.798;2022-12-24T02:55:08;99959.09;;;27.49;48.79
63395;BME280;49531;-34.520;150.798;2022-12-24T02:57:54;99959.91;;;27.50;49.43
63395;BME280;49531;-34.520;150.798;2022-12-24T03:00:38;99957.63;;;27.52;50.02
63395;BME280;49531;-34.520;150.798;2022-12-24T03:03:30;99944.41;;;27.54;49.93
63395;BME280;49531;-34.520;150.798;2022-12-24T03:06:13;99946.81;;;27.55;50.00
63395;BME280;49531;-34.520;150.798;2022-12-24T03:08:54;99946.19;;;27.59;50.14
63395;BME280;49531;-34.520;150.798;2022-12-24T03:11:25;99943.09;;;27.60;50.36
63395;BME280;49531;-34.520;150.798;2022-12-24T03:13:54;99942.44;;;27.63;50.10
63395;BME280;49531;-34.520;150.798;2022-12-24T03:16:26;99963.75;;;27.66;50.18
63395;BME280;49531;-34.520;150.798;2022-12-24T03:18:54;99952.94;;;27.70;50.04
63395;BME280;49531;-34.520;150.798;2022-12-24T03:21:31;99948.72;;;27.72;50.11
63395;BME280;49531;-34.520;150.798;2022-12-24T03:24:00;99952.28;;;27.73;50.06
63395;BME280;49531;-34.520;150.798;2022-12-24T03:26:28;99948.25;;;27.70;48.85
63395;BME280;49531;-34.520;150.798;2022-12-24T03:28:57;99950.19;;;27.70;48.26
63395;BME280;49531;-34.520;150.798;2022-12-24T03:31:24;99952.13;;;27.69;48.58
63395;BME280;49531;-34.520;150.798;2022-12-24T03:33:51;99954.53;;;27.71;49.27
63395;BME280;49531;-34.520;150.798;2022-12-24T03:36:18;99943.56;;;27.71;48.29
63395;BME280;49531;-34.520;150.798;2022-12-24T03:38:45;99949.19;;;27.74;49.11
63395;BME280;49531;-34.520;150.798;2022-12-24T03:41:13;99952.44;;;27.76;49.16
63395;BME280;49531;-34.520;150.798;2022-12-24T03:43:40;99937.56;;;27.77;49.01
63395;BME280;49531;-34.520;150.798;2022-12-24T03:46:07;99953.38;;;27.80;49.04
63395;BME280;49531;-34.520;150.798;2022-12-24T03:48:35;99951.91;;;27.83;49.12
63395;BME280;49531;-34.520;150.798;2022-12-24T03:51:03;99951.28;;;27.86;48.67
63395;BME280;49531;-34.520;150.798;2022-12-24T03:53:30;99937.88;;;27.84;48.62
63395;BME280;49531;-34.520;150.798;2022-12-24T03:55:57;99935.47;;;27.83;47.41
63395;BME280;49531;-34.520;150.798;2022-12-24T03:58:25;99936.25;;;27.83;48.18
63395;BME280;49531;-34.520;150.798;2022-12-24T04:00:53;99932.88;;;27.86;48.14
63395;BME280;49531;-34.520;150.798;2022-12-24T04:03:20;99932.19;;;27.89;48.38
63395;BME280;49531;-34.520;150.798;2022-12-24T04:05:47;99944.13;;;27.94;48.59
63395;BME280;49531;-34.520;150.798;2022-12-24T04:08:14;99937.50;;;27.95;47.52
63395;BME280;49531;-34.520;150.798;2022-12-24T04:10:41;99940.25;;;27.95;48.03
63395;BME280;49531;-34.520;150.798;2022-12-24T04:13:08;99953.66;;;27.96;48.03
63395;BME280;49531;-34.520;150.798;2022-12-24T04:15:35;99942.69;;;27.96;47.88
63395;BME280;49531;-34.520;150.798;2022-12-24T04:18:03;99933.63;;;27.96;47.45
63395;BME280;49531;-34.520;150.798;2022-12-24T04:20:30;99921.19;;;27.98;47.80
63395;BME280;49531;-34.520;150.798;2022-12-24T04:22:57;99927.50;;;27.99;48.15
63395;BME280;49531;-34.520;150.798;2022-12-24T04:25:24;99914.22;;;28.01;48.45
63395;BME280;49531;-34.520;150.798;2022-12-24T04:27:51;99910.31;;;28.02;47.75
63395;BME280;49531;-34.520;150.798;2022-12-24T04:30:18;99918.22;;;28.03;48.67
63395;BME280;49531;-34.520;150.798;2022-12-24T04:32:45;99920.66;;;28.05;47.55
63395;BME280;49531;-34.520;150.798;2022-12-24T04:35:12;99917.91;;;28.05;47.24
63395;BME280;49531;-34.520;150.798;2022-12-24T04:37:40;99909.19;;;28.03;46.86
63395;BME280;49531;-34.520;150.798;2022-12-24T04:40:07;99901.97;;;27.98;46.76
63395;BME280;49531;-34.520;150.798;2022-12-24T04:42:34;99905.63;;;28.02;47.53
63395;BME280;49531;-34.520;150.798;2022-12-24T04:45:02;99904.84;;;28.02;47.26
63395;BME280;49531;-34.520;150.798;2022-12-24T04:47:29;99900.97;;;28.03;47.61
63395;BME280;49531;-34.520;150.798;2022-12-24T04:49:56;99900.63;;;28.04;47.78
63395;BME280;49531;-34.520;150.798;2022-12-24T04:52:23;99902.56;;;28.04;47.46
63395;BME280;49531;-34.520;150.798;2022-12-24T04:54:50;99902.56;;;28.04;47.75
63395;BME280;49531;-34.520;150.798;2022-12-24T04:57:17;99893.53;;;28.03;47.72
63395;BME280;49531;-34.520;150.798;2022-12-24T04:59:45;99902.38;;;28.09;48.10
63395;BME280;49531;-34.520;150.798;2022-12-24T05:02:12;99896.41;;;28.07;46.70
63395;BME280;49531;-34.520;150.798;2022-12-24T05:04:39;99905.47;;;28.07;46.62
63395;BME280;49531;-34.520;150.798;2022-12-24T05:07:06;99906.25;;;28.08;47.43
63395;BME280;49531;-34.520;150.798;2022-12-24T05:09:33;99898.03;;;28.08;46.18
63395;BME280;49531;-34.520;150.798;2022-12-24T05:12:00;99902.06;;;28.10;47.09
63395;BME280;49531;-34.520;150.798;2022-12-24T05:14:27;99902.84;;;28.11;46.43
63395;BME280;49531;-34.520;150.798;2022-12-24T05:16:54;99894.28;;;28.12;46.88
63395;BME280;49531;-34.520;150.798;2022-12-24T05:19:22;99891.22;;;28.14;46.74
63395;BME280;49531;-34.520;150.798;2022-12-24T05:21:49;99888.94;;;28.16;45.45
63395;BME280;49531;-34.520;150.798;2022-12-24T05:24:35;99893.63;;;28.15;46.43
63395;BME280;49531;-34.520;150.798;2022-12-24T05:27:14;99889.41;;;28.18;46.13
63395;BME280;49531;-34.520;150.798;2022-12-24T05:29:41;99892.16;;;28.18;45.68
63395;BME280;49531;-34.520;150.798;2022-12-24T05:32:09;99901.19;;;28.18;45.03
63395;BME280;49531;-34.520;150.798;2022-12-24T05:34:36;99906.69;;;28.18;45.20
63395;BME280;49531;-34.520;150.798;2022-12-24T05:37:03;99905.56;;;28.19;45.71
63395;BME280;49531;-34.520;150.798;2022-12-24T05:39:30;99913.78;;;28.19;45.27
63395;BME280;49531;-34.520;150.798;2022-12-24T05:41:57;99922.03;;;28.19;44.44
63395;BME280;49531;-34.520;150.798;2022-12-24T05:44:24;99931.41;;;28.18;44.85
63395;BME280;49531;-34.520;150.798;2022-12-24T05:46:52;99937.38;;;28.20;45.36
63395;BME280;49531;-34.520;150.798;2022-12-24T05:49:19;99929.13;;;28.20;45.14
63395;BME280;49531;-34.520;150.798;2022-12-24T05:51:46;99951.94;;;28.21;45.22
63395;BME280;49531;-34.520;150.798;2022-12-24T05:54:13;99959.06;;;28.22;45.42
63395;BME280;49531;-34.520;150.798;2022-12-24T05:56:40;99960.47;;;28.19;45.13
63395;BME280;49531;-34.520;150.798;2022-12-24T05:59:07;99957.25;;;28.17;44.59
63395;BME280;49531;-34.520;150.798;2022-12-24T06:01:34;99956.44;;;28.17;44.12
63395;BME280;49531;-34.520;150.798;2022-12-24T06:04:02;99966.47;;;28.13;43.76
63395;BME280;49531;-34.520;150.798;2022-12-24T06:06:29;99968.91;;;28.14;44.07
63395;BME280;49531;-34.520;150.798;2022-12-24T06:08:56;99976.66;;;28.12;43.74
63395;BME280;49531;-34.520;150.798;2022-12-24T06:11:26;99984.75;;;28.09;43.25
63395;BME280;49531;-34.520;150.798;2022-12-24T06:13:53;99986.53;;;28.05;43.53
63395;BME280;49531;-34.520;150.798;2022-12-24T06:16:22;99993.50;;;28.02;43.17
63395;BME280;49531;-34.520;150.798;2022-12-24T06:18:50;99993.38;;;27.99;43.25
63395;BME280;49531;-34.520;150.798;2022-12-24T06:21:18;99994.84;;;27.96;42.93
63395;BME280;49531;-34.520;150.798;2022-12-24T06:23:45;99984.03;;;27.91;43.19
63395;BME280;49531;-34.520;150.798;2022-12-24T06:26:15;99983.56;;;27.89;42.82
63395;BME280;49531;-34.520;150.798;2022-12-24T06:28:43;99964.66;;;27.87;43.11
63395;BME280;49531;-34.520;150.798;2022-12-24T06:31:13;99979.53;;;27.86;43.22
63395;BME280;49531;-34.520;150.798;2022-12-24T06:33:41;99986.47;;;27.84;43.12
63395;BME280;49531;-34.520;150.798;2022-12-24T06:36:14;99993.91;;;27.83;43.45
63395;BME280;49531;-34.520;150.798;2022-12-24T06:38:41;99989.69;;;27.86;43.77
63395;BME280;49531;-34.520;150.798;2022-12-24T06:41:08;99997.75;;;27.91;43.89
63395;BME280;49531;-34.520;150.798;2022-12-24T06:43:35;99999.22;;;27.88;43.87
63395;BME280;49531;-34.520;150.798;2022-12-24T06:46:03;99989.53;;;27.91;44.21
63395;BME280;49531;-34.520;150.798;2022-12-24T06:48:30;99995.50;;;27.93;44.25
63395;BME280;49531;-34.520;150.798;2022-12-24T06:51:00;99995.50;;;27.93;44.53
63395;BME280;49531;-34.520;150.798;2022-12-24T06:53:27;100001.13;;;27.97;44.52
63395;BME280;49531;-34.520;150.798;2022-12-24T06:56:02;100006.63;;;27.97;44.54
63395;BME280;49531;-34.520;150.798;2022-12-24T06:58:30;100012.91;;;27.97;44.68
63395;BME280;49531;-34.520;150.798;2022-12-24T07:00:57;100010.97;;;27.98;44.87
63395;BME280;49531;-34.520;150.798;2022-12-24T07:03:24;100018.41;;;27.97;44.70
63395;BME280;49531;-34.520;150.798;2022-12-24T07:05:52;100024.34;;;27.99;44.56
63395;BME280;49531;-34.520;150.798;2022-12-24T07:08:19;100027.44;;;27.98;44.49
63395;BME280;49531;-34.520;150.798;2022-12-24T07:10:48;100036.50;;;27.98;44.38
63395;BME280;49531;-34.520;150.798;2022-12-24T07:13:16;100041.97;;;27.98;44.91
63395;BME280;49531;-34.520;150.798;2022-12-24T07:15:44;100042.31;;;27.97;44.81
63395;BME280;49531;-34.520;150.798;2022-12-24T07:18:11;100043.13;;;27.97;44.70
63395;BME280;49531;-34.520;150.798;2022-12-24T07:20:38;100050.53;;;27.97;44.81
63395;BME280;49531;-34.520;150.798;2022-12-24T07:23:06;100054.91;;;27.98;44.53
63395;BME280;49531;-34.520;150.798;2022-12-24T07:25:33;100055.72;;;27.98;44.63
63395;BME280;49531;-34.520;150.798;2022-12-24T07:28:00;100056.03;;;27.97;44.98
63395;BME280;49531;-34.520;150.798;2022-12-24T07:30:27;100066.22;;;27.96;44.94
63395;BME280;49531;-34.520;150.798;2022-12-24T07:32:54;100065.41;;;27.96;45.15
63395;BME280;49531;-34.520;150.798;2022-12-24T07:35:21;100065.41;;;27.96;45.01
63395;BME280;49531;-34.520;150.798;2022-12-24T07:37:48;100073.63;;;27.96;45.28
63395;BME280;49531;-34.520;150.798;2022-12-24T07:40:15;100083.00;;;27.95;45.00
63395;BME280;49531;-34.520;150.798;2022-12-24T07:42:42;100087.69;;;27.94;45.29
63395;BME280;49531;-34.520;150.798;2022-12-24T07:45:09;100081.38;;;27.94;45.12
63395;BME280;49531;-34.520;150.798;2022-12-24T07:47:36;100081.38;;;27.94;45.37
63395;BME280;49531;-34.520;150.798;2022-12-24T07:50:04;100086.06;;;27.93;45.20
63395;BME280;49531;-34.520;150.798;2022-12-24T07:52:32;100102.88;;;27.92;45.59
63395;BME280;49531;-34.520;150.798;2022-12-24T07:54:59;100112.22;;;27.91;45.44
63395;BME280;49531;-34.520;150.798;2022-12-24T07:57:26;100116.59;;;27.92;45.64
63395;BME280;49531;-34.520;150.798;2022-12-24T07:59:53;100124.03;;;27.91;45.67
63395;BME280;49531;-34.520;150.798;2022-12-24T08:02:20;100127.91;;;27.90;45.79
63395;BME280;49531;-34.520;150.798;2022-12-24T08:04:47;100128.72;;;27.91;45.83
63395;BME280;49531;-34.520;150.798;2022-12-24T08:07:14;100129.03;;;27.89;46.17
63395;BME280;49531;-34.520;150.798;2022-12-24T08:09:41;100145.50;;;27.89;46.47
63395;BME280;49531;-34.520;150.798;2022-12-24T08:12:11;100149.03;;;27.89;46.72
63395;BME280;49531;-34.520;150.798;2022-12-24T08:14:38;100158.41;;;27.88;46.86
63395;BME280;49531;-34.520;150.798;2022-12-24T08:17:05;100158.41;;;27.88;47.30
63395;BME280;49531;-34.520;150.798;2022-12-24T08:19:32;100173.28;;;27.87;47.50
63395;BME280;49531;-34.520;150.798;2022-12-24T08:21:59;100172.47;;;27.87;47.54
63395;BME280;49531;-34.520;150.798;2022-12-24T08:24:26;100177.16;;;27.86;47.59
63395;BME280;49531;-34.520;150.798;2022-12-24T08:26:53;100189.25;;;27.85;47.61
63395;BME280;49531;-34.520;150.798;2022-12-24T08:29:20;100192.00;;;27.85;47.62
63395;BME280;49531;-34.520;150.798;2022-12-24T08:31:47;100192.00;;;27.85;47.68
63395;BME280;49531;-34.520;150.798;2022-12-24T08:34:14;100195.06;;;27.84;47.77
63395;BME280;49531;-34.520;150.798;2022-12-24T08:36:41;100196.19;;;27.83;47.85
63395;BME280;49531;-34.520;150.798;2022-12-24T08:39:09;100197.31;;;27.82;47.99
63395;BME280;49531;-34.520;150.798;2022-12-24T08:41:36;100196.50;;;27.81;48.15
63395;BME280;49531;-34.520;150.798;2022-12-24T08:44:03;100205.06;;;27.80;48.38
63395;BME280;49531;-34.520;150.798;2022-12-24T08:46:31;100215.25;;;27.79;48.25
63395;BME280;49531;-34.520;150.798;2022-12-24T08:48:58;100219.91;;;27.79;48.21
63395;BME280;49531;-34.520;150.798;2022-12-24T08:51:25;100222.97;;;27.77;48.24
63395;BME280;49531;-34.520;150.798;2022-12-24T08:53:52;100222.19;;;27.77;48.49
63395;BME280;49531;-34.520;150.798;2022-12-24T08:56:19;100222.81;;;27.74;48.79
63395;BME280;49531;-34.520;150.798;2022-12-24T08:58:46;100218.94;;;27.75;48.70
63395;BME280;49531;-34.520;150.798;2022-12-24T09:01:16;100225.56;;;27.74;48.61
63395;BME280;49531;-34.520;150.798;2022-12-24T09:03:44;100228.94;;;27.71;48.47
63395;BME280;49531;-34.520;150.798;2022-12-24T09:06:11;100232.00;;;27.69;48.42
63395;BME280;49531;-34.520;150.798;2022-12-24T09:08:39;100236.69;;;27.69;48.34
63395;BME280;49531;-34.520;150.798;2022-12-24T09:11:08;100235.06;;;27.68;48.06
63395;BME280;49531;-34.520;150.798;2022-12-24T09:13:37;100246.69;;;27.65;48.14
63395;BME280;49531;-34.520;150.798;2022-12-24T09:16:04;100245.88;;;27.64;48.20
63395;BME280;49531;-34.520;150.798;2022-12-24T09:18:32;100243.47;;;27.63;48.22
63395;BME280;49531;-34.520;150.798;2022-12-24T09:21:00;100255.25;;;27.63;48.02
63395;BME280;49531;-34.520;150.798;2022-12-24T09:23:28;100259.78;;;27.59;47.98
63395;BME280;49531;-34.520;150.798;2022-12-24T09:25:55;100258.13;;;27.58;47.64
63395;BME280;49531;-34.520;150.798;2022-12-24T09:28:23;100272.16;;;27.56;47.76
63395;BME280;49531;-34.520;150.798;2022-12-24T09:30:55;100267.00;;;27.55;47.54
63395;BME280;49531;-34.520;150.798;2022-12-24T09:33:22;100267.31;;;27.53;47.97
63395;BME280;49531;-34.520;150.798;2022-12-24T09:35:51;100274.25;;;27.51;48.79
63395;BME280;49531;-34.520;150.798;2022-12-24T09:38:20;100279.25;;;27.49;49.42
63395;BME280;49531;-34.520;150.798;2022-12-24T09:40:48;100286.66;;;27.48;49.37
63395;BME280;49531;-34.520;150.798;2022-12-24T09:43:19;100292.47;;;27.47;49.83
63395;BME280;49531;-34.520;150.798;2022-12-24T09:46:03;100295.84;;;27.44;49.59
63395;BME280;49531;-34.520;150.798;2022-12-24T09:48:36;100300.53;;;27.43;49.74
63395;BME280;49531;-34.520;150.798;2022-12-24T09:51:10;100301.31;;;27.44;49.87
63395;BME280;49531;-34.520;150.798;2022-12-24T09:53:46;100303.88;;;27.40;50.13
63395;BME280;49531;-34.520;150.798;2022-12-24T09:56:19;100313.25;;;27.39;49.94
63395;BME280;49531;-34.520;150.798;2022-12-24T09:58:53;100306.13;;;27.38;49.10
63395;BME280;49531;-34.520;150.798;2022-12-24T10:01:23;100308.06;;;27.38;49.15
63395;BME280;49531;-34.520;150.798;2022-12-24T10:03:50;100315.81;;;27.36;48.92
63395;BME280;49531;-34.520;150.798;2022-12-24T10:06:21;100327.09;;;27.34;49.31
63395;BME280;49531;-34.520;150.798;2022-12-24T10:11:53;100334.97;;;27.27;49.17
63395;BME280;49531;-34.520;150.798;2022-12-24T10:14:38;100339.47;;;27.23;50.05
63395;BME280;49531;-34.520;150.798;2022-12-24T10:17:29;100348.81;;;27.22;50.21
63395;BME280;49531;-34.520;150.798;2022-12-24T10:20:20;100334.59;;;27.20;50.42
63395;BME280;49531;-34.520;150.798;2022-12-24T10:22:59;100342.44;;;27.04;51.69
63395;BME280;49531;-34.520;150.798;2022-12-24T10:25:37;100336.69;;;27.14;51.02
63395;BME280;49531;-34.520;150.798;2022-12-24T10:28:14;100355.41;;;27.21;50.70
63395;BME280;49531;-34.520;150.798;2022-12-24T10:30:46;100354.47;;;27.26;50.55
63395;BME280;49531;-34.520;150.798;2022-12-24T10:33:19;100363.69;;;27.30;50.34
63395;BME280;49531;-34.520;150.798;2022-12-24T10:35:53;100367.25;;;27.30;50.36
63395;BME280;49531;-34.520;150.798;2022-12-24T10:38:20;100366.13;;;27.31;50.35
63395;BME280;49531;-34.520;150.798;2022-12-24T10:40:51;100375.16;;;27.32;50.35
63395;BME280;49531;-34.520;150.798;2022-12-24T10:43:21;100373.53;;;27.31;51.19
63395;BME280;49531;-34.520;150.798;2022-12-24T10:45:57;100381.75;;;27.31;51.12
63395;BME280;49531;-34.520;150.798;2022-12-24T10:48:31;100391.63;;;27.32;51.10
63395;BME280;49531;-34.520;150.798;2022-12-24T10:51:05;100394.34;;;27.32;50.97
63395;BME280;49531;-34.520;150.798;2022-12-24T10:53:45;100396.28;;;27.31;50.91
63395;BME280;49531;-34.520;150.798;2022-12-24T10:56:16;100393.53;;;27.31;50.95
63395;BME280;49531;-34.520;150.798;2022-12-24T10:58:50;100396.28;;;27.31;50.97
63395;BME280;49531;-34.520;150.798;2022-12-24T11:01:18;100408.88;;;27.32;50.81
63395;BME280;49531;-34.520;150.798;2022-12-24T11:03:59;100404.50;;;27.31;51.17
63395;BME280;49531;-34.520;150.798;2022-12-24T11:06:27;100416.28;;;27.32;51.71
63395;BME280;49531;-34.520;150.798;2022-12-24T11:09:11;100415.81;;;27.30;51.67
63395;BME280;49531;-34.520;150.798;2022-12-24T11:11:45;100416.59;;;27.30;51.50
63395;BME280;49531;-34.520;150.798;2022-12-24T11:14:15;100426.78;;;27.30;51.84
63395;BME280;49531;-34.520;150.798;2022-12-24T11:16:52;100425.16;;;27.29;51.99
63395;BME280;49531;-34.520;150.798;2022-12-24T11:19:31;100427.09;;;27.28;51.81
63395;BME280;49531;-34.520;150.798;2022-12-24T11:22:03;100433.69;;;27.27;52.10
63395;BME280;49531;-34.520;150.798;2022-12-24T11:24:33;100434.00;;;27.26;52.41
63395;BME280;49531;-34.520;150.798;2022-12-24T11:29:52;100426.59;;;27.26;52.08
63395;BME280;49531;-34.520;150.798;2022-12-24T11:32:21;100432.38;;;27.24;52.04
63395;BME280;49531;-34.520;150.798;2022-12-24T11:34:49;100441.72;;;27.23;52.23
63395;BME280;49531;-34.520;150.798;2022-12-24T11:37:22;100444.78;;;27.22;52.09
63395;BME280;49531;-34.520;150.798;2022-12-24T11:39:52;100441.22;;;27.21;52.04
63395;BME280;49531;-34.520;150.798;2022-12-24T11:42:32;100442.03;;;27.22;51.80
63395;BME280;49531;-34.520;150.798;2022-12-24T11:45:03;100439.59;;;27.20;51.94
63395;BME280;49531;-34.520;150.798;2022-12-24T11:47:34;100430.56;;;27.20;51.90
63395;BME280;49531;-34.520;150.798;2022-12-24T11:50:23;100437.22;;;27.19;52.06
63395;BME280;49531;-34.520;150.798;2022-12-24T11:53:06;100441.06;;;27.18;52.17
63395;BME280;49531;-34.520;150.798;2022-12-24T11:55:49;100444.13;;;27.16;52.18
63395;BME280;49531;-34.520;150.798;2022-12-24T11:58:40;100437.03;;;27.15;52.21
63395;BME280;49531;-34.520;150.798;2022-12-24T12:01:22;100449.13;;;27.14;51.91
63395;BME280;49531;-34.520;150.798;2022-12-24T12:03:53;100448.63;;;27.12;52.12
63395;BME280;49531;-34.520;150.798;2022-12-24T12:06:31;100451.34;;;27.12;52.03
63395;BME280;49531;-34.520;150.798;2022-12-24T12:09:06;100451.97;;;27.09;52.29
63395;BME280;49531;-34.520;150.798;2022-12-24T12:11:39;100453.09;;;27.08;52.38
63395;BME280;49531;-34.520;150.798;2022-12-24T12:14:16;100450.66;;;27.07;52.25
63395;BME280;49531;-34.520;150.798;2022-12-24T12:16:59;100453.72;;;27.05;52.15
63395;BME280;49531;-34.520;150.798;2022-12-24T12:19:36;100454.84;;;27.04;52.45
63395;BME280;49531;-34.520;150.798;2022-12-24T12:22:09;100465.31;;;27.02;52.40
63395;BME280;49531;-34.520;150.798;2022-12-24T12:24:46;100466.72;;;27.00;52.21
63395;BME280;49531;-34.520;150.798;2022-12-24T12:27:35;100462.38;;;26.99;52.50
63395;BME280;49531;-34.520;150.798;2022-12-24T12:30:08;100470.91;;;26.97;52.67
63395;BME280;49531;-34.520;150.798;2022-12-24T12:32:51;100463.25;;;26.94;52.61
63395;BME280;49531;-34.520;150.798;2022-12-24T12:35:28;100471.78;;;26.92;52.49
63395;BME280;49531;-34.520;150.798;2022-12-24T12:38:01;100474.84;;;26.91;52.61
63395;BME280;49531;-34.520;150.798;2022-12-24T12:40:59;100466.94;;;26.89;52.60
63395;BME280;49531;-34.520;150.798;2022-12-24T12:43:54;100460.44;;;26.85;52.79
63395;BME280;49531;-34.520;150.798;2022-12-24T12:46:49;100467.03;;;26.84;52.86
63395;BME280;49531;-34.520;150.798;2022-12-24T12:52:31;100457.34;;;26.78;52.88
63395;BME280;49531;-34.520;150.798;2022-12-24T12:55:22;100461.50;;;26.76;52.63
63395;BME280;49531;-34.520;150.798;2022-12-24T12:57:57;100456.34;;;26.74;52.95
63395;BME280;49531;-34.520;150.798;2022-12-24T13:00:28;100456.66;;;26.73;52.75
63395;BME280;49531;-34.520;150.798;2022-12-24T13:03:27;100452.28;;;26.72;52.71